createdAt,value
2023-01-08T00:00:32.860Z,76.96
2023-01-08T00:05:37.106Z,76.92
2023-01-08T00:10:40.286Z,77.13
2023-01-08T00:15:43.004Z,76.75
2023-01-08T00:20:47.895Z,76.88
2023-01-08T00:25:50.921Z,76.88
2023-01-08T00:30:53.612Z,77.29
2023-01-08T00:35:57.747Z,77.25
2023-01-08T00:41:00.613Z,77.59
2023-01-08T00:46:03.479Z,77.20
2023-01-08T00:51:08.924Z,77.11
2023-01-08T00:56:11.723Z,76.96
2023-01-08T01:01:16.174Z,76.96
2023-01-08T01:06:20.501Z,76.82
2023-01-08T01:11:24.801Z,76.70
2023-01-08T01:16:27.566Z,76.47
2023-01-08T01:21:33.488Z,76.89
2023-01-08T01:26:36.167Z,76.82
2023-01-08T01:31:38.888Z,76.62
2023-01-08T01:36:43.000Z,76.49
2023-01-08T01:41:47.358Z,76.15
2023-01-08T01:46:50.833Z,76.26
2023-01-08T01:51:57.478Z,76.46
2023-01-08T01:57:01.370Z,76.21
2023-01-08T02:02:04.222Z,76.22
2023-01-08T02:07:12.809Z,76.11
2023-01-08T02:12:19.061Z,76.48
2023-01-08T02:17:26.242Z,76.45
2023-01-08T02:22:39.117Z,76.70
2023-01-08T02:27:46.440Z,76.48
2023-01-08T02:32:49.188Z,76.19
2023-01-08T02:37:51.919Z,76.54
2023-01-08T02:43:01.026Z,76.07
2023-01-08T02:48:08.802Z,76.47
2023-01-08T02:53:14.301Z,76.53
2023-01-08T02:58:19.152Z,76.69
2023-01-08T03:03:24.024Z,76.76
2023-01-08T03:08:27.267Z,76.61
2023-01-08T03:13:41.354Z,76.21
2023-01-08T03:18:48.245Z,75.74
2023-01-08T03:23:51.852Z,75.77
2023-01-08T03:28:57.582Z,75.63
2023-01-08T03:34:01.383Z,75.61
2023-01-08T03:39:09.318Z,75.24
2023-01-08T03:44:13.340Z,75.20
2023-01-08T03:49:16.668Z,75.54
2023-01-08T03:54:20.957Z,75.15
2023-01-08T03:59:25.391Z,75.00
2023-01-08T04:04:28.326Z,75.06
2023-01-08T04:09:35.991Z,74.72
2023-01-08T04:14:40.079Z,75.02
2023-01-08T04:19:42.764Z,75.05
2023-01-08T04:24:45.432Z,74.66
2023-01-08T04:29:49.522Z,74.84
2023-01-08T04:34:52.202Z,74.53
2023-01-08T04:39:54.905Z,74.77
2023-01-08T04:44:58.964Z,74.72
2023-01-08T04:50:01.715Z,74.96
2023-01-08T04:55:04.903Z,74.45
2023-01-08T05:00:10.213Z,74.46
2023-01-08T05:05:12.938Z,74.29
2023-01-08T05:10:15.883Z,74.46
2023-01-08T05:15:20.036Z,74.11
2023-01-08T05:20:22.740Z,74.07
2023-01-08T05:25:25.772Z,73.97
2023-01-08T05:30:29.825Z,73.96
2023-01-08T05:35:32.572Z,74.18
2023-01-08T05:40:35.420Z,74.16
2023-01-08T05:45:39.472Z,74.07
2023-01-08T05:50:42.242Z,74.08
2023-01-08T05:55:44.959Z,74.29
2023-01-08T06:00:49.046Z,73.90
2023-01-08T06:05:51.791Z,74.14
2023-01-08T06:10:54.646Z,74.18
2023-01-08T06:16:00.281Z,73.90
2023-01-08T06:21:04.464Z,74.00
2023-01-08T06:26:07.371Z,73.88
2023-01-08T06:31:11.446Z,73.74
2023-01-08T06:36:14.156Z,73.72
2023-01-08T06:41:16.919Z,73.90
2023-01-08T06:46:21.091Z,73.70
2023-01-08T06:51:23.852Z,73.67
2023-01-08T06:56:26.801Z,73.55
2023-01-08T07:01:30.943Z,74.08
2023-01-08T07:06:33.697Z,73.78
2023-01-08T07:11:36.744Z,73.53
2023-01-08T07:16:40.882Z,73.78
2023-01-08T07:21:43.632Z,73.62
2023-01-08T07:26:46.333Z,73.36
2023-01-08T07:31:50.414Z,73.63
2023-01-08T07:36:53.179Z,73.61
2023-01-08T07:41:56.257Z,73.57
2023-01-08T07:47:00.293Z,73.35
2023-01-08T07:52:02.990Z,73.38
2023-01-08T07:57:05.848Z,73.35
2023-01-08T08:02:11.888Z,73.53
2023-01-08T08:07:14.913Z,73.70
2023-01-08T08:12:17.683Z,73.69
2023-01-08T08:17:21.842Z,73.33
2023-01-08T08:22:24.587Z,73.51
2023-01-08T08:27:27.586Z,73.66
2023-01-08T08:32:31.785Z,73.48
2023-01-08T08:37:34.515Z,73.14
2023-01-08T08:42:42.660Z,73.83
2023-01-08T08:47:46.798Z,73.63
2023-01-08T08:52:49.891Z,73.95
2023-01-08T08:57:52.958Z,73.91
2023-01-08T09:02:57.200Z,73.75
2023-01-08T09:08:00.124Z,73.61
2023-01-08T09:13:02.972Z,73.64
2023-01-08T09:18:07.176Z,73.50
2023-01-08T09:23:10.790Z,73.55
2023-01-08T09:28:13.983Z,73.86
2023-01-08T09:33:18.030Z,73.79
2023-01-08T09:38:20.725Z,74.01
2023-01-08T09:43:24.691Z,74.05
2023-01-08T09:48:31.084Z,73.63
2023-01-08T09:53:34.217Z,74.07
2023-01-08T09:58:39.756Z,74.06
2023-01-08T10:03:46.437Z,73.62
2023-01-08T10:08:51.021Z,74.13
2023-01-08T10:13:55.957Z,73.90
2023-01-08T10:19:01.734Z,73.91
2023-01-08T10:24:05.028Z,73.64
2023-01-08T10:29:10.257Z,73.86
2023-01-08T10:34:24.104Z,73.62
2023-01-08T10:39:28.547Z,73.87
2023-01-08T10:44:31.473Z,73.97
2023-01-08T10:49:39.110Z,73.59
2023-01-08T10:54:42.221Z,73.71
2023-01-08T10:59:45.289Z,73.75
2023-01-08T11:04:51.233Z,73.64
2023-01-08T11:09:54.449Z,73.58
2023-01-08T11:14:57.546Z,73.51
2023-01-08T11:20:11.219Z,73.45
2023-01-08T11:25:16.140Z,73.48
2023-01-08T11:30:20.991Z,73.56
2023-01-08T11:35:26.914Z,73.36
2023-01-08T11:40:43.153Z,73.55
2023-01-08T11:46:04.051Z,73.87
2023-01-08T11:51:29.633Z,73.88
2023-01-08T11:56:41.868Z,73.91
2023-01-08T12:01:51.398Z,73.98
2023-01-08T12:07:00.465Z,73.57
2023-01-08T12:12:09.898Z,73.98
2023-01-08T12:17:41.193Z,73.65
2023-01-08T12:22:49.671Z,73.64
2023-01-08T12:27:59.942Z,73.53
2023-01-08T12:33:06.146Z,73.84
2023-01-08T12:38:14.967Z,73.52
2023-01-08T12:43:21.420Z,73.67
2023-01-08T12:48:26.755Z,73.55
2023-01-08T12:53:41.338Z,73.26
2023-01-08T12:58:52.809Z,73.64
2023-01-08T13:03:56.302Z,73.44
2023-01-08T13:09:01.789Z,73.71
2023-01-08T13:14:06.489Z,73.52
2023-01-08T13:19:24.444Z,73.86
2023-01-08T13:24:31.553Z,73.77
2023-01-08T13:29:41.675Z,73.82
2023-01-08T13:34:44.480Z,73.91
2023-01-08T13:39:48.789Z,74.01
2023-01-08T13:44:53.237Z,73.84
2023-01-08T13:49:56.898Z,73.63
2023-01-08T13:55:01.744Z,73.79
2023-01-08T14:00:06.688Z,73.67
2023-01-08T14:05:19.828Z,74.00
2023-01-08T14:10:26.167Z,73.56
2023-01-08T14:15:29.871Z,73.94
2023-01-08T14:20:34.338Z,74.26
2023-01-08T14:25:38.633Z,73.78
2023-01-08T14:30:48.870Z,74.08
2023-01-08T14:35:52.202Z,73.89
2023-01-08T14:41:02.121Z,74.05
2023-01-08T14:46:05.113Z,74.21
2023-01-08T14:51:09.286Z,74.21
2023-01-08T14:56:14.611Z,74.44
2023-01-08T15:01:19.729Z,74.23
2023-01-08T15:06:26.322Z,74.66
2023-01-08T15:11:31.979Z,74.57
2023-01-08T15:16:38.731Z,74.85
2023-01-08T15:21:46.955Z,74.87
2023-01-08T15:26:51.399Z,75.21
2023-01-08T15:31:54.471Z,75.36
2023-01-08T15:36:57.237Z,75.50
2023-01-08T15:42:27.573Z,75.61
2023-01-08T15:47:30.271Z,75.97
2023-01-08T15:52:33.448Z,75.80
2023-01-08T15:57:39.780Z,75.82
2023-01-08T16:02:46.473Z,75.93
2023-01-08T16:07:49.715Z,75.85
2023-01-08T16:12:53.938Z,76.44
2023-01-08T16:17:56.894Z,76.24
2023-01-08T16:22:59.796Z,76.75
2023-01-08T16:28:04.161Z,76.84
2023-01-08T16:33:07.006Z,77.13
2023-01-08T16:38:10.786Z,77.19
2023-01-08T16:43:14.900Z,77.07
2023-01-08T16:48:17.864Z,77.35
2023-01-08T16:53:21.870Z,77.46
2023-01-08T16:58:26.034Z,77.22
2023-01-08T17:03:28.957Z,77.56
2023-01-08T17:08:31.721Z,77.56
2023-01-08T17:13:35.932Z,77.92
2023-01-08T17:18:38.997Z,77.72
2023-01-08T17:23:41.966Z,77.79
2023-01-08T17:28:47.116Z,78.03
2023-01-08T17:33:51.057Z,78.32
2023-01-08T17:38:54.520Z,78.00
2023-01-08T17:44:01.882Z,78.11
2023-01-08T17:49:04.680Z,78.48
2023-01-08T17:54:09.740Z,78.43
2023-01-08T17:59:15.700Z,78.36
2023-01-08T18:04:18.505Z,78.36
2023-01-08T18:09:21.620Z,78.63
2023-01-08T18:14:25.784Z,78.74
2023-01-08T18:19:28.547Z,78.51
2023-01-08T18:24:31.503Z,78.68
2023-01-08T18:29:35.736Z,78.57
2023-01-08T18:34:38.827Z,79.01
2023-01-08T18:39:45.706Z,78.67
2023-01-08T18:44:52.546Z,78.84
2023-01-08T18:49:55.927Z,78.78
2023-01-08T18:54:58.725Z,79.21
2023-01-08T19:00:04.520Z,79.07
2023-01-08T19:05:08.013Z,79.42
2023-01-08T19:10:12.374Z,79.49
2023-01-08T19:15:16.686Z,79.27
2023-01-08T19:20:19.619Z,79.06
2023-01-08T19:25:22.476Z,79.50
2023-01-08T19:30:26.682Z,79.12
2023-01-08T19:35:29.535Z,79.53
2023-01-08T19:40:32.353Z,79.49
2023-01-08T19:45:37.960Z,79.51
2023-01-08T19:50:41.108Z,79.10
2023-01-08T19:55:45.269Z,79.13
2023-01-08T20:00:49.460Z,79.22
2023-01-08T20:05:52.267Z,79.43
2023-01-08T20:10:55.082Z,79.25
2023-01-08T20:15:59.221Z,79.74
2023-01-08T20:21:06.735Z,79.93
2023-01-08T20:26:12.007Z,79.73
2023-01-08T20:31:18.996Z,79.79
2023-01-08T20:36:23.850Z,79.89
2023-01-08T20:41:27.232Z,80.13
2023-01-08T20:46:31.444Z,80.51
2023-01-08T20:51:39.552Z,80.38
2023-01-08T20:56:42.693Z,80.20
2023-01-08T21:01:46.870Z,80.45
2023-01-08T21:06:49.944Z,80.51
2023-01-08T21:11:52.839Z,80.31
2023-01-08T21:16:57.327Z,80.56
2023-01-08T21:22:00.051Z,80.19
2023-01-08T21:27:03.470Z,80.47
2023-01-08T21:32:08.027Z,80.21
2023-01-08T21:37:10.863Z,80.56
2023-01-08T21:42:31.341Z,80.08
2023-01-08T21:47:35.421Z,80.32
2023-01-08T21:52:55.156Z,80.04
2023-01-08T21:57:57.853Z,80.34
2023-01-08T22:03:01.974Z,80.25
2023-01-08T22:08:05.433Z,80.55
2023-01-08T22:13:13.404Z,80.03
2023-01-08T22:18:17.691Z,80.27
2023-01-08T22:23:20.385Z,79.92
2023-01-08T22:28:23.316Z,80.29
2023-01-08T22:33:27.402Z,80.25
2023-01-08T22:38:30.181Z,80.51
2023-01-08T22:43:37.811Z,80.26
2023-01-08T22:48:41.987Z,81.16
2023-01-08T22:53:45.146Z,81.29
2023-01-08T22:58:47.911Z,81.23
2023-01-08T23:03:52.336Z,81.52
2023-01-08T23:08:56.126Z,81.04
2023-01-08T23:14:00.882Z,81.08
2023-01-08T23:19:04.942Z,80.69
2023-01-08T23:24:08.840Z,80.70
2023-01-08T23:29:11.886Z,80.84
2023-01-08T23:34:16.256Z,80.91
2023-01-08T23:39:26.561Z,80.65
2023-01-08T23:44:29.535Z,81.30
2023-01-08T23:49:34.517Z,81.16
2023-01-08T23:54:37.301Z,81.58
2023-01-08T23:59:40.039Z,81.36
